createdAt,value
2018-09-02T00:00:19.728Z,73.89
2018-09-02T00:01:19.655Z,73.60
2018-09-02T00:02:19.589Z,73.89
2018-09-02T00:03:19.541Z,73.60
2018-09-02T00:04:19.475Z,73.99
2018-09-02T00:05:19.406Z,73.99
2018-09-02T00:06:19.341Z,73.60
2018-09-02T00:07:19.288Z,73.99
2018-09-02T00:08:19.222Z,73.69
2018-09-02T00:09:19.153Z,73.60
2018-09-02T00:10:19.095Z,74.18
2018-09-02T00:11:19.028Z,74.18
2018-09-02T00:12:18.979Z,74.38
2018-09-02T00:13:18.902Z,74.28
2018-09-02T00:14:18.842Z,74.57
2018-09-02T00:15:18.777Z,74.47
2018-09-02T00:16:18.722Z,74.73
2018-09-02T00:17:18.644Z,74.47
2018-09-02T00:18:18.578Z,74.53
2018-09-02T00:19:18.530Z,74.63
2018-09-02T00:20:18.496Z,75.11
2018-09-02T00:21:18.405Z,74.82
2018-09-02T00:22:18.338Z,74.82
2018-09-02T00:23:18.288Z,74.82
2018-09-02T00:24:18.235Z,74.82
2018-09-02T00:25:18.183Z,75.11
2018-09-02T00:26:18.081Z,74.82
2018-09-02T00:27:18.035Z,74.53
2018-09-02T00:28:18.554Z,74.73
2018-09-02T00:29:17.897Z,74.43
2018-09-02T00:30:17.841Z,74.43
2018-09-02T00:31:17.776Z,74.66
2018-09-02T00:32:17.699Z,74.76
2018-09-02T00:33:17.739Z,74.28
2018-09-02T00:34:17.580Z,73.89
2018-09-02T00:35:17.518Z,74.38
2018-09-02T00:36:17.459Z,74.38
2018-09-02T00:37:17.384Z,74.28
2018-09-02T00:38:17.322Z,74.28
2018-09-02T00:39:17.265Z,74.38
2018-09-02T00:40:17.206Z,74.28
2018-09-02T00:41:17.127Z,74.18
2018-09-02T00:42:17.070Z,74.82
2018-09-02T00:43:17.003Z,74.92
2018-09-02T00:44:16.947Z,74.92
2018-09-02T00:45:16.884Z,74.82
2018-09-02T00:46:16.810Z,75.02
2018-09-02T00:47:16.749Z,75.31
2018-09-02T00:48:16.690Z,75.21
2018-09-02T00:49:16.632Z,75.89
2018-09-02T00:50:16.563Z,75.89
2018-09-02T00:51:16.505Z,76.66
2018-09-02T00:52:16.431Z,76.37
2018-09-02T00:53:16.370Z,76.18
2018-09-02T00:54:16.313Z,76.28
2018-09-02T00:55:16.255Z,76.08
2018-09-02T00:56:16.176Z,76.08
2018-09-02T00:57:16.115Z,76.43
2018-09-02T00:58:16.078Z,76.28
2018-09-02T00:59:15.986Z,76.46
2018-09-02T01:00:15.932Z,76.86
2018-09-02T01:01:15.871Z,76.72
2018-09-02T01:02:15.808Z,76.72
2018-09-02T01:03:15.747Z,76.24
2018-09-02T01:04:15.686Z,76.53
2018-09-02T01:05:15.602Z,76.43
2018-09-02T01:06:15.549Z,77.40
2018-09-02T01:07:15.474Z,76.62
2018-09-02T01:08:15.428Z,76.53
2018-09-02T01:09:15.361Z,76.62
2018-09-02T01:10:15.286Z,77.69
2018-09-02T01:11:15.246Z,78.46
2018-09-02T01:12:15.174Z,78.17
2018-09-02T01:13:15.105Z,77.78
2018-09-02T01:14:15.048Z,78.03
2018-09-02T01:15:14.982Z,77.88
2018-09-02T01:16:14.914Z,77.98
2018-09-02T01:17:14.855Z,78.08
2018-09-02T01:18:14.776Z,78.46
2018-09-02T01:19:14.738Z,78.56
2018-09-02T01:20:14.666Z,78.91
2018-09-02T01:21:14.597Z,78.85
2018-09-02T01:22:14.537Z,78.61
2018-09-02T01:23:14.476Z,78.66
2018-09-02T01:24:14.400Z,78.61
2018-09-02T01:25:14.342Z,78.85
2018-09-02T01:26:14.287Z,78.66
2018-09-02T01:27:14.219Z,78.66
2018-09-02T01:28:14.146Z,78.66
2018-09-02T01:29:14.106Z,78.94
2018-09-02T01:30:14.022Z,79.10
2018-09-02T01:31:13.948Z,78.91
2018-09-02T01:32:13.897Z,79.78
2018-09-02T01:33:13.835Z,79.49
2018-09-02T01:34:13.772Z,79.39
2018-09-02T01:35:13.709Z,79.49
2018-09-02T01:36:13.652Z,80.16
2018-09-02T01:37:13.576Z,80.46
2018-09-02T01:38:13.516Z,79.97
2018-09-02T01:39:13.449Z,80.26
2018-09-02T01:40:13.393Z,80.07
2018-09-02T01:41:13.326Z,80.65
2018-09-02T01:42:13.258Z,80.07
2018-09-02T01:43:13.190Z,80.46
2018-09-02T01:44:13.137Z,80.07
2018-09-02T01:45:13.075Z,79.97
2018-09-02T01:46:13.005Z,79.78
2018-09-02T01:47:12.948Z,79.97
2018-09-02T01:48:12.872Z,79.49
2018-09-02T01:49:12.831Z,80.07
2018-09-02T01:50:12.755Z,80.07
2018-09-02T01:51:12.692Z,80.07
2018-09-02T01:52:12.625Z,79.97
2018-09-02T01:53:12.585Z,79.97
2018-09-02T01:54:12.490Z,80.16
2018-09-02T01:55:12.426Z,80.46
2018-09-02T01:56:12.372Z,80.61
2018-09-02T01:57:12.305Z,80.61
2018-09-02T01:58:12.244Z,81.38
2018-09-02T01:59:12.169Z,80.99
2018-09-02T02:00:12.116Z,81.19
2018-09-02T02:01:12.055Z,81.19
2018-09-02T02:02:11.987Z,81.48
2018-09-02T02:03:11.923Z,80.90
2018-09-02T02:04:11.866Z,80.74
2018-09-02T02:05:11.796Z,80.36
2018-09-02T02:06:11.724Z,80.65
2018-09-02T02:07:11.652Z,80.55
2018-09-02T02:08:11.603Z,80.07
2018-09-02T02:09:11.540Z,80.26
2018-09-02T02:10:11.479Z,80.36
2018-09-02T02:11:11.413Z,80.26
2018-09-02T02:12:11.356Z,80.41
2018-09-02T02:13:11.292Z,80.55
2018-09-02T02:14:11.221Z,80.65
2018-09-02T02:15:11.156Z,81.04
2018-09-02T02:16:11.078Z,80.80
2018-09-02T02:17:11.024Z,80.99
2018-09-02T02:18:10.973Z,80.71
2018-09-02T02:19:10.912Z,80.65
2018-09-02T02:20:10.834Z,81.19
2018-09-02T02:21:10.777Z,80.41
2018-09-02T02:22:10.701Z,80.90
2018-09-02T02:23:10.636Z,80.90
2018-09-02T02:24:10.577Z,80.12
2018-09-02T02:25:10.518Z,80.16
2018-09-02T02:26:10.459Z,80.16
2018-09-02T02:27:10.393Z,80.26
2018-09-02T02:28:10.343Z,80.26
2018-09-02T02:29:10.248Z,80.46
2018-09-02T02:30:10.203Z,80.07
2018-09-02T02:31:10.139Z,80.22
2018-09-02T02:32:10.069Z,80.22
2018-09-02T02:33:10.013Z,80.90
2018-09-02T02:34:09.932Z,80.61
2018-09-02T02:35:09.864Z,81.19
2018-09-02T02:36:09.815Z,80.80
2018-09-02T02:37:09.750Z,80.61
2018-09-02T02:38:09.685Z,80.22
2018-09-02T02:39:09.628Z,80.22
2018-09-02T02:40:09.550Z,80.22
2018-09-02T02:41:09.490Z,80.22
2018-09-02T02:42:09.421Z,80.32
2018-09-02T02:43:09.362Z,80.22
2018-09-02T02:44:09.301Z,80.12
2018-09-02T02:45:09.237Z,80.03
2018-09-02T02:46:09.186Z,80.51
2018-09-02T02:47:09.124Z,80.51
2018-09-02T02:48:09.050Z,80.16
2018-09-02T02:49:08.992Z,79.49
2018-09-02T02:50:08.919Z,79.78
2018-09-02T02:51:08.855Z,79.20
2018-09-02T02:52:08.780Z,79.58
2018-09-02T02:53:08.736Z,79.10
2018-09-02T02:54:08.664Z,79.74
2018-09-02T02:55:08.597Z,79.93
2018-09-02T02:56:08.526Z,79.93
2018-09-02T02:57:08.461Z,80.12
2018-09-02T02:58:08.401Z,80.32
2018-09-02T02:59:08.332Z,80.51
2018-09-02T03:00:08.286Z,80.41
2018-09-02T03:01:08.219Z,80.41
2018-09-02T03:02:08.150Z,80.71
2018-09-02T03:03:08.097Z,80.71
2018-09-02T03:04:08.031Z,80.41
2018-09-02T03:05:07.957Z,80.41
2018-09-02T03:06:07.899Z,80.71
2018-09-02T03:07:07.830Z,80.76
2018-09-02T03:08:07.772Z,81.24
2018-09-02T03:09:07.689Z,80.86
2018-09-02T03:10:07.634Z,80.76
2018-09-02T03:11:07.569Z,81.63
2018-09-02T03:12:07.517Z,81.63
2018-09-02T03:13:07.446Z,81.24
2018-09-02T03:14:07.386Z,81.15
2018-09-02T03:15:07.323Z,81.34
2018-09-02T03:16:07.262Z,82.11
2018-09-02T03:17:07.182Z,81.63
2018-09-02T03:18:07.135Z,81.24
2018-09-02T03:19:07.061Z,81.44
2018-09-02T03:20:06.995Z,81.53
2018-09-02T03:21:06.933Z,81.82
2018-09-02T03:22:06.860Z,80.76
2018-09-02T03:23:06.799Z,81.05
2018-09-02T03:24:06.742Z,81.34
2018-09-02T03:25:06.677Z,80.76
2018-09-02T03:26:06.616Z,80.76
2018-09-02T03:27:06.549Z,80.76
2018-09-02T03:28:06.477Z,81.05
2018-09-02T03:29:06.416Z,80.66
2018-09-02T03:30:06.384Z,80.76
2018-09-02T03:31:06.290Z,80.76
2018-09-02T03:32:06.232Z,81.05
2018-09-02T03:33:06.176Z,80.86
2018-09-02T03:34:06.093Z,81.15
2018-09-02T03:35:06.059Z,81.05
2018-09-02T03:36:05.977Z,81.24
2018-09-02T03:37:05.943Z,81.92
2018-09-02T03:38:05.845Z,81.15
2018-09-02T03:39:05.783Z,81.24
2018-09-02T03:40:05.710Z,81.92
2018-09-02T03:41:05.663Z,81.82
2018-09-02T03:42:05.579Z,81.82
2018-09-02T03:43:05.545Z,81.82
2018-09-02T03:44:05.470Z,81.68
2018-09-02T03:45:05.399Z,81.73
2018-09-02T03:46:05.333Z,81.73
2018-09-02T03:47:05.269Z,81.49
2018-09-02T03:48:05.190Z,81.49
2018-09-02T03:49:05.130Z,81.88
2018-09-02T03:50:05.071Z,81.59
2018-09-02T03:51:05.009Z,81.49
2018-09-02T03:52:04.930Z,81.40
2018-09-02T03:53:04.872Z,81.40
2018-09-02T03:54:04.822Z,80.91
2018-09-02T03:55:04.740Z,80.72
2018-09-02T03:56:04.692Z,81.01
2018-09-02T03:57:04.626Z,80.72
2018-09-02T03:58:04.552Z,81.20
2018-09-02T03:59:04.510Z,81.30
2018-09-02T04:00:04.433Z,81.20
2018-09-02T04:01:04.373Z,80.82
2018-09-02T04:02:04.305Z,80.82
2018-09-02T04:03:04.234Z,80.91
2018-09-02T04:04:04.162Z,80.62
2018-09-02T04:05:04.107Z,80.91
2018-09-02T04:06:04.048Z,81.20
2018-09-02T04:07:03.981Z,80.82
2018-09-02T04:08:03.906Z,81.11
2018-09-02T04:09:03.855Z,81.01
2018-09-02T04:10:03.776Z,81.11
2018-09-02T04:11:03.712Z,80.82
2018-09-02T04:12:03.652Z,81.11
2018-09-02T04:13:03.594Z,80.82
2018-09-02T04:14:03.527Z,81.78
2018-09-02T04:15:03.464Z,81.49
2018-09-02T04:16:03.406Z,81.20
2018-09-02T04:17:03.326Z,81.26
2018-09-02T04:18:03.261Z,81.26
2018-09-02T04:19:03.218Z,82.03
2018-09-02T04:20:03.140Z,81.93
2018-09-02T04:21:03.076Z,81.93
2018-09-02T04:22:03.019Z,82.03
2018-09-02T04:23:02.936Z,81.35
2018-09-02T04:24:02.879Z,81.49
2018-09-02T04:25:02.819Z,81.35
2018-09-02T04:26:02.752Z,81.49
2018-09-02T04:27:02.689Z,81.35
2018-09-02T04:28:02.633Z,81.49
2018-09-02T04:29:02.551Z,81.35
2018-09-02T04:30:02.492Z,82.13
2018-09-02T04:31:02.422Z,82.13
2018-09-02T04:32:02.367Z,81.84
2018-09-02T04:33:02.306Z,81.49
2018-09-02T04:34:02.237Z,81.68
2018-09-02T04:35:02.170Z,81.78
2018-09-02T04:36:02.119Z,81.74
2018-09-02T04:37:02.035Z,81.45
2018-09-02T04:38:01.983Z,82.23
2018-09-02T04:39:01.914Z,82.13
2018-09-02T04:40:01.841Z,81.55
2018-09-02T04:41:01.781Z,81.45
2018-09-02T04:42:01.715Z,81.35
2018-09-02T04:43:01.666Z,81.55
2018-09-02T04:44:01.589Z,81.98
2018-09-02T04:45:01.540Z,81.01
2018-09-02T04:46:01.465Z,80.82
2018-09-02T04:47:01.391Z,80.72
2018-09-02T04:48:01.333Z,81.30
2018-09-02T04:49:01.267Z,81.45
2018-09-02T04:50:01.212Z,81.55
2018-09-02T04:51:01.148Z,81.45
2018-09-02T04:52:01.079Z,81.55
2018-09-02T04:53:01.010Z,81.11
2018-09-02T04:54:00.936Z,80.91
2018-09-02T04:55:00.875Z,81.30
2018-09-02T04:56:00.820Z,81.20
2018-09-02T04:57:00.751Z,81.20
2018-09-02T04:58:00.686Z,80.62
2018-09-02T04:59:00.617Z,81.01
2018-09-02T05:00:00.575Z,81.01
2018-09-02T05:01:00.487Z,80.72
2018-09-02T05:02:00.432Z,80.72
2018-09-02T05:03:00.366Z,81.01
2018-09-02T05:04:00.293Z,80.82
2018-09-02T05:05:00.245Z,81.01
2018-09-02T05:06:00.163Z,80.68
2018-09-02T05:07:00.097Z,80.87
2018-09-02T05:08:00.050Z,80.72
2018-09-02T05:08:59.973Z,80.58
2018-09-02T05:09:59.926Z,80.97
2018-09-02T05:10:59.853Z,80.58
2018-09-02T05:11:59.785Z,80.78
2018-09-02T05:12:59.727Z,81.01
2018-09-02T05:13:59.727Z,81.01
2018-09-02T05:14:59.592Z,81.16
2018-09-02T05:15:59.524Z,80.97
2018-09-02T05:16:59.452Z,81.01
2018-09-02T05:17:59.391Z,80.72
2018-09-02T05:18:59.339Z,80.43
2018-09-02T05:19:59.267Z,80.33
2018-09-02T05:20:59.201Z,80.43
2018-09-02T05:21:59.137Z,79.95
2018-09-02T05:22:59.084Z,80.49
2018-09-02T05:23:58.998Z,80.87
2018-09-02T05:24:58.939Z,81.16
2018-09-02T05:25:58.888Z,80.78
2018-09-02T05:26:58.815Z,80.97
2018-09-02T05:27:58.742Z,80.78
2018-09-02T05:28:58.677Z,81.07
2018-09-02T05:29:58.612Z,81.07
2018-09-02T05:30:58.547Z,80.97
2018-09-02T05:31:58.495Z,80.78
2018-09-02T05:32:58.428Z,80.78
2018-09-02T05:33:58.367Z,81.16
2018-09-02T05:34:58.300Z,80.49
2018-09-02T05:35:58.235Z,80.58
2018-09-02T05:36:58.260Z,80.53
2018-09-02T05:37:58.102Z,80.33
2018-09-02T05:38:58.034Z,79.95
2018-09-02T05:39:57.974Z,79.95
2018-09-02T05:40:57.910Z,80.33
2018-09-02T05:41:57.843Z,80.33
2018-09-02T05:42:57.777Z,79.95
2018-09-02T05:43:57.757Z,79.85
2018-09-02T05:44:57.657Z,79.85
2018-09-02T05:45:57.594Z,80.05
2018-09-02T05:46:57.529Z,79.37
2018-09-02T05:47:57.457Z,79.66
2018-09-02T05:48:57.407Z,79.56
2018-09-02T05:49:57.347Z,79.56
2018-09-02T05:50:57.279Z,79.37
2018-09-02T05:51:57.200Z,79.66
2018-09-02T05:52:57.142Z,79.37
2018-09-02T05:53:57.074Z,79.37
2018-09-02T05:54:57.007Z,79.17
2018-09-02T05:55:56.937Z,78.99
2018-09-02T05:56:56.892Z,78.99
2018-09-02T05:57:56.823Z,78.89
2018-09-02T05:58:56.756Z,78.92
2018-09-02T05:59:56.706Z,78.73
2018-09-02T06:00:56.637Z,78.89
2018-09-02T06:01:56.549Z,79.37
2018-09-02T06:02:56.588Z,79.66
2018-09-02T06:03:56.432Z,79.56
2018-09-02T06:04:56.372Z,79.95
2018-09-02T06:05:56.291Z,79.56
2018-09-02T06:06:56.229Z,78.99
2018-09-02T06:07:56.180Z,79.08
2018-09-02T06:08:56.108Z,78.99
2018-09-02T06:09:56.043Z,79.08
2018-09-02T06:10:55.979Z,79.08
2018-09-02T06:11:55.910Z,78.99
2018-09-02T06:12:55.861Z,78.79
2018-09-02T06:13:55.790Z,78.99
2018-09-02T06:14:55.729Z,79.52
2018-09-02T06:15:55.654Z,80.00
2018-09-02T06:16:55.596Z,79.81
2018-09-02T06:17:55.517Z,80.00
2018-09-02T06:18:55.476Z,80.10
2018-09-02T06:19:55.404Z,79.91
2018-09-02T06:20:55.337Z,79.91
2018-09-02T06:21:55.276Z,80.20
2018-09-02T06:22:55.209Z,79.91
2018-09-02T06:23:55.133Z,79.81
2018-09-02T06:24:55.071Z,80.00
2018-09-02T06:25:55.013Z,79.85
2018-09-02T06:26:54.939Z,79.08
2018-09-02T06:27:54.898Z,78.69
2018-09-02T06:28:54.823Z,78.79
2018-09-02T06:29:54.830Z,78.59
2018-09-02T06:30:54.689Z,78.79
2018-09-02T06:31:54.632Z,78.79
2018-09-02T06:32:54.642Z,78.69
2018-09-02T06:33:54.511Z,78.89
2018-09-02T06:34:54.441Z,78.59
2018-09-02T06:35:54.371Z,78.59
2018-09-02T06:36:54.303Z,79.02
2018-09-02T06:37:54.247Z,78.34
2018-09-02T06:38:54.178Z,78.06
2018-09-02T06:39:54.110Z,78.25
2018-09-02T06:40:54.056Z,77.67
2018-09-02T06:41:53.977Z,77.86
2018-09-02T06:42:53.922Z,77.71
2018-09-02T06:43:53.865Z,77.22
2018-09-02T06:44:53.801Z,76.93
2018-09-02T06:45:53.779Z,76.84
2018-09-02T06:46:53.674Z,77.03
2018-09-02T06:47:53.610Z,77.03
2018-09-02T06:48:53.544Z,77.42
2018-09-02T06:49:53.479Z,77.22
2018-09-02T06:50:53.412Z,77.22
2018-09-02T06:51:53.343Z,77.57
2018-09-02T06:52:53.298Z,77.71
2018-09-02T06:53:53.222Z,77.61
2018-09-02T06:54:53.151Z,77.22
2018-09-02T06:55:53.098Z,77.22
2018-09-02T06:56:53.034Z,76.84
2018-09-02T06:57:52.970Z,76.93
2018-09-02T06:58:52.906Z,76.35
2018-09-02T06:59:52.828Z,76.64
2018-09-02T07:00:52.773Z,77.03
2018-09-02T07:01:52.721Z,76.93
2018-09-02T07:02:52.658Z,76.35
2018-09-02T07:03:52.592Z,75.97
2018-09-02T07:04:52.525Z,76.01
2018-09-02T07:05:52.475Z,75.71
2018-09-02T07:06:52.455Z,75.71
2018-09-02T07:07:52.336Z,75.33
2018-09-02T07:08:52.280Z,74.85
2018-09-02T07:09:52.209Z,75.43
2018-09-02T07:10:52.143Z,75.33
2018-09-02T07:11:52.089Z,74.94
2018-09-02T07:12:52.030Z,75.04
2018-09-02T07:13:51.964Z,75.07
2018-09-02T07:14:51.895Z,75.27
2018-09-02T07:15:51.849Z,74.59
2018-09-02T07:16:51.763Z,74.85
2018-09-02T07:17:51.710Z,74.79
2018-09-02T07:18:51.644Z,74.69
2018-09-02T07:19:51.577Z,74.94
2018-09-02T07:20:51.532Z,75.71
2018-09-02T07:21:51.441Z,76.16
2018-09-02T07:22:51.382Z,75.87
2018-09-02T07:23:51.334Z,76.35
2018-09-02T07:24:51.271Z,76.20
2018-09-02T07:25:51.214Z,76.26
2018-09-02T07:26:51.142Z,75.81
2018-09-02T07:27:51.073Z,75.43
2018-09-02T07:28:51.008Z,75.52
2018-09-02T07:29:50.947Z,75.04
2018-09-02T07:30:50.881Z,75.23
2018-09-02T07:31:50.836Z,75.52
2018-09-02T07:32:50.764Z,75.91
2018-09-02T07:33:50.693Z,75.71
2018-09-02T07:34:50.631Z,75.23
2018-09-02T07:35:50.574Z,74.55
2018-09-02T07:36:50.522Z,74.36
2018-09-02T07:37:50.451Z,74.98
2018-09-02T07:38:50.388Z,74.30
2018-09-02T07:39:50.323Z,73.82
2018-09-02T07:40:50.274Z,73.72
2018-09-02T07:41:50.197Z,74.40
2018-09-02T07:42:50.131Z,73.91
2018-09-02T07:43:50.170Z,73.72
2018-09-02T07:44:50.020Z,73.27
2018-09-02T07:45:49.956Z,73.37
2018-09-02T07:46:49.896Z,73.47
2018-09-02T07:47:49.839Z,72.89
2018-09-02T07:48:49.776Z,73.27
2018-09-02T07:49:49.710Z,72.98
2018-09-02T07:50:49.642Z,73.47
2018-09-02T07:51:49.569Z,73.53
2018-09-02T07:52:49.511Z,73.82
2018-09-02T07:53:49.456Z,73.72
2018-09-02T07:54:49.379Z,73.91
2018-09-02T07:55:49.333Z,73.37
2018-09-02T07:56:49.299Z,73.47
2018-09-02T07:57:49.204Z,73.57
2018-09-02T07:58:49.146Z,73.27
2018-09-02T07:59:49.073Z,72.89
2018-09-02T08:00:49.016Z,73.47
2018-09-02T08:01:48.947Z,73.37
2018-09-02T08:02:48.978Z,73.37
2018-09-02T08:03:48.834Z,73.18
2018-09-02T08:04:48.772Z,73.08
2018-09-02T08:05:48.706Z,73.37
2018-09-02T08:06:48.641Z,73.41
2018-09-02T08:07:48.592Z,72.34
2018-09-02T08:08:48.529Z,72.92
2018-09-02T08:09:48.460Z,72.34
2018-09-02T08:10:48.402Z,72.53
2018-09-02T08:11:48.341Z,72.63
2018-09-02T08:12:48.328Z,73.02
2018-09-02T08:13:48.219Z,73.31
2018-09-02T08:14:48.160Z,73.31
2018-09-02T08:15:48.123Z,73.11
2018-09-02T08:16:48.032Z,72.83
2018-09-02T08:17:47.963Z,72.83
2018-09-02T08:18:47.891Z,72.05
2018-09-02T08:19:47.893Z,71.86
2018-09-02T08:20:47.788Z,72.47
2018-09-02T08:21:47.721Z,72.24
2018-09-02T08:22:47.673Z,73.31
2018-09-02T08:23:47.599Z,74.15
2018-09-02T08:24:47.533Z,75.11
2018-09-02T08:25:47.480Z,74.53
2018-09-02T08:26:47.476Z,75.56
2018-09-02T08:27:47.344Z,76.33
2018-09-02T08:28:47.300Z,76.33
2018-09-02T08:29:47.238Z,75.85
2018-09-02T08:30:47.164Z,76.18
2018-09-02T08:31:47.108Z,75.95
2018-09-02T08:32:47.088Z,76.46
2018-09-02T08:33:46.979Z,75.31
2018-09-02T08:34:46.923Z,74.82
2018-09-02T08:35:46.868Z,75.15
2018-09-02T08:36:46.789Z,74.66
2018-09-02T08:37:46.735Z,74.47
2018-09-02T08:38:46.687Z,74.28
2018-09-02T08:39:46.604Z,74.28
2018-09-02T08:40:46.552Z,73.83
2018-09-02T08:41:46.504Z,74.12
2018-09-02T08:42:46.437Z,75.24
2018-09-02T08:43:46.367Z,75.63
2018-09-02T08:44:46.302Z,75.63
2018-09-02T08:45:46.240Z,75.34
2018-09-02T08:46:46.186Z,75.15
2018-09-02T08:47:46.109Z,75.63
2018-09-02T08:48:46.047Z,76.31
2018-09-02T08:49:45.992Z,75.73
2018-09-02T08:50:45.931Z,76.08
2018-09-02T08:51:45.870Z,76.76
2018-09-02T08:52:45.815Z,77.73
2018-09-02T08:53:45.741Z,76.99
2018-09-02T08:54:45.683Z,76.79
2018-09-02T08:55:45.631Z,75.73
2018-09-02T08:56:45.564Z,75.83
2018-09-02T08:57:45.507Z,75.73
2018-09-02T08:58:45.440Z,75.83
2018-09-02T08:59:45.373Z,75.57
2018-09-02T09:00:45.315Z,75.19
2018-09-02T09:01:45.276Z,74.93
2018-09-02T09:02:45.205Z,73.86
2018-09-02T09:03:45.152Z,73.38
2018-09-02T09:04:45.078Z,73.28
2018-09-02T09:05:45.024Z,73.77
2018-09-02T09:06:44.950Z,74.45
2018-09-02T09:07:45.101Z,74.35
2018-09-02T09:08:45.132Z,73.67
2018-09-02T09:09:44.803Z,73.90
2018-09-02T09:10:44.710Z,74.06
2018-09-02T09:11:44.633Z,73.96
2018-09-02T09:12:44.577Z,74.10
2018-09-02T09:13:44.533Z,74.39
2018-09-02T09:14:44.453Z,73.13
2018-09-02T09:15:44.411Z,73.42
2018-09-02T09:16:44.472Z,73.55
2018-09-02T09:17:44.283Z,73.52
2018-09-02T09:18:44.211Z,73.61
2018-09-02T09:19:44.159Z,73.52
2018-09-02T09:20:44.097Z,73.52
2018-09-02T09:21:44.180Z,73.32
2018-09-02T09:22:44.021Z,73.32
2018-09-02T09:23:43.913Z,74.16
2018-09-02T09:24:43.859Z,74.49
2018-09-02T09:25:43.794Z,74.00
2018-09-02T09:26:43.727Z,74.39
2018-09-02T09:27:43.664Z,73.90
2018-09-02T09:28:43.625Z,74.39
2018-09-02T09:29:43.545Z,74.49
2018-09-02T09:30:43.492Z,74.39
2018-09-02T09:31:43.445Z,74.29
2018-09-02T09:32:43.373Z,74.43
2018-09-02T09:33:43.319Z,74.04
2018-09-02T09:34:43.257Z,73.80
2018-09-02T09:35:43.183Z,73.74
2018-09-02T09:36:43.122Z,74.33
2018-09-02T09:37:43.067Z,74.33
2018-09-02T09:38:43.012Z,74.23
2018-09-02T09:39:42.967Z,74.52
2018-09-02T09:40:42.932Z,74.62
2018-09-02T09:41:42.825Z,75.10
2018-09-02T09:42:42.770Z,74.71
2018-09-02T09:43:42.715Z,75.59
2018-09-02T09:44:42.652Z,74.81
2018-09-02T09:45:42.611Z,74.62
2018-09-02T09:46:42.516Z,74.85
2018-09-02T09:47:42.472Z,74.71
2018-09-02T09:48:42.416Z,74.43
2018-09-02T09:49:42.365Z,74.43
2018-09-02T09:50:42.288Z,75.04
2018-09-02T09:51:42.229Z,74.37
2018-09-02T09:52:42.169Z,74.37
2018-09-02T09:53:42.103Z,74.43
2018-09-02T09:54:42.036Z,75.34
2018-09-02T09:55:41.998Z,75.04
2018-09-02T09:56:41.924Z,75.78
2018-09-02T09:57:41.865Z,75.88
2018-09-02T09:58:41.813Z,76.27
2018-09-02T09:59:41.729Z,76.37
2018-09-02T10:00:41.675Z,75.98
2018-09-02T10:01:41.632Z,75.34
2018-09-02T10:02:41.564Z,75.53
2018-09-02T10:03:41.520Z,75.43
2018-09-02T10:04:41.444Z,75.14
2018-09-02T10:05:41.387Z,75.14
2018-09-02T10:06:41.314Z,75.24
2018-09-02T10:07:41.269Z,75.34
2018-09-02T10:08:41.187Z,75.24
2018-09-02T10:09:41.132Z,75.08
2018-09-02T10:10:41.084Z,74.60
2018-09-02T10:11:41.123Z,75.08
2018-09-02T10:12:40.953Z,74.69
2018-09-02T10:13:40.911Z,75.57
2018-09-02T10:14:40.836Z,74.98
2018-09-02T10:15:40.781Z,75.43
2018-09-02T10:16:40.722Z,75.53
2018-09-02T10:17:40.665Z,75.34
2018-09-02T10:18:40.607Z,75.72
2018-09-02T10:19:40.543Z,76.01
2018-09-02T10:20:40.486Z,75.14
2018-09-02T10:21:40.469Z,75.18
2018-09-02T10:22:40.389Z,75.43
2018-09-02T10:23:40.307Z,75.14
2018-09-02T10:24:40.227Z,75.24
2018-09-02T10:25:40.181Z,75.43
2018-09-02T10:26:40.119Z,75.34
2018-09-02T10:27:40.068Z,75.43
2018-09-02T10:28:39.988Z,75.34
2018-09-02T10:29:39.927Z,75.92
2018-09-02T10:30:39.876Z,75.82
2018-09-02T10:31:39.826Z,76.01
2018-09-02T10:32:39.758Z,75.24
2018-09-02T10:33:39.700Z,74.98
2018-09-02T10:34:39.635Z,74.69
2018-09-02T10:35:39.660Z,75.18
2018-09-02T10:36:39.525Z,74.98
2018-09-02T10:37:39.446Z,75.18
2018-09-02T10:38:39.397Z,75.08
2018-09-02T10:39:39.335Z,74.69
2018-09-02T10:40:39.276Z,73.91
2018-09-02T10:41:39.217Z,74.30
2018-09-02T10:42:39.163Z,73.91
2018-09-02T10:43:39.084Z,73.82
2018-09-02T10:44:39.038Z,74.11
2018-09-02T10:45:38.977Z,73.91
2018-09-02T10:46:38.923Z,74.11
2018-09-02T10:47:38.844Z,73.91
2018-09-02T10:48:38.781Z,73.75
2018-09-02T10:49:38.761Z,74.15
2018-09-02T10:50:38.674Z,73.37
2018-09-02T10:51:38.610Z,73.46
2018-09-02T10:52:38.543Z,73.75
2018-09-02T10:53:38.493Z,73.27
2018-09-02T10:54:38.440Z,73.37
2018-09-02T10:55:38.372Z,73.75
2018-09-02T10:56:38.315Z,74.24
2018-09-02T10:57:38.257Z,74.05
2018-09-02T10:58:38.177Z,73.56
2018-09-02T10:59:38.179Z,73.37
2018-09-02T11:00:38.073Z,73.46
2018-09-02T11:01:38.011Z,72.98
2018-09-02T11:02:37.948Z,73.46
2018-09-02T11:03:37.885Z,73.27
2018-09-02T11:04:37.828Z,72.88
2018-09-02T11:05:37.764Z,73.18
2018-09-02T11:06:37.712Z,72.59
2018-09-02T11:07:37.699Z,72.49
2018-09-02T11:08:37.648Z,72.49
2018-09-02T11:09:37.543Z,72.20
2018-09-02T11:10:37.466Z,71.75
2018-09-02T11:11:37.405Z,72.53
2018-09-02T11:12:37.350Z,71.66
2018-09-02T11:13:37.445Z,71.81
2018-09-02T11:14:37.238Z,71.85
2018-09-02T11:15:37.197Z,71.17
2018-09-02T11:16:37.108Z,70.36
2018-09-02T11:17:37.049Z,70.39
2018-09-02T11:18:37.003Z,70.29
2018-09-02T11:19:36.947Z,70.39
2018-09-02T11:20:36.876Z,69.71
2018-09-02T11:21:36.827Z,70.49
2018-09-02T11:22:36.743Z,71.07
2018-09-02T11:23:36.683Z,70.29
2018-09-02T11:24:36.638Z,70.49
2018-09-02T11:25:36.579Z,70.68
2018-09-02T11:26:36.510Z,70.58
2018-09-02T11:27:36.448Z,70.78
2018-09-02T11:28:36.380Z,70.58
2018-09-02T11:29:36.326Z,70.78
2018-09-02T11:30:36.270Z,71.07
2018-09-02T11:31:36.214Z,70.58
2018-09-02T11:32:36.142Z,71.17
2018-09-02T11:33:36.237Z,70.58
2018-09-02T11:34:36.036Z,70.68
2018-09-02T11:35:35.969Z,70.39
2018-09-02T11:36:35.915Z,70.58
2018-09-02T11:37:35.855Z,70.58
2018-09-02T11:38:35.784Z,70.78
2018-09-02T11:39:35.749Z,70.78
2018-09-02T11:40:35.684Z,71.11
2018-09-02T11:41:35.627Z,70.23
2018-09-02T11:42:35.554Z,70.13
2018-09-02T11:43:35.493Z,70.13
2018-09-02T11:44:35.433Z,69.94
2018-09-02T11:45:35.373Z,70.32
2018-09-02T11:46:35.333Z,70.23
2018-09-02T11:47:35.245Z,70.04
2018-09-02T11:48:35.193Z,70.52
2018-09-02T11:49:35.132Z,70.62
2018-09-02T11:50:35.083Z,70.52
2018-09-02T11:51:35.009Z,70.58
2018-09-02T11:52:34.941Z,70.78
2018-09-02T11:53:34.904Z,70.87
2018-09-02T11:54:34.828Z,70.68
2018-09-02T11:55:34.796Z,70.78
2018-09-02T11:56:34.713Z,70.78
2018-09-02T11:57:34.712Z,70.72
2018-09-02T11:58:34.605Z,70.20
2018-09-02T11:59:34.539Z,70.42
2018-09-02T12:00:34.461Z,69.84
2018-09-02T12:01:34.422Z,69.55
2018-09-02T12:02:34.388Z,69.35
2018-09-02T12:03:34.287Z,69.45
2018-09-02T12:04:34.222Z,69.13
2018-09-02T12:05:34.172Z,68.57
2018-09-02T12:06:34.112Z,68.67
2018-09-02T12:07:34.074Z,68.57
2018-09-02T12:08:33.988Z,67.80
2018-09-02T12:09:33.936Z,68.29
2018-09-02T12:10:33.863Z,68.38
2018-09-02T12:11:33.831Z,67.80
2018-09-02T12:12:33.739Z,68.77
2018-09-02T12:13:33.704Z,68.48
2018-09-02T12:14:33.847Z,68.48
2018-09-02T12:15:33.570Z,68.57
2018-09-02T12:16:33.508Z,68.48
2018-09-02T12:17:33.445Z,68.87
2018-09-02T12:18:33.447Z,68.57
2018-09-02T12:19:33.336Z,68.57
2018-09-02T12:20:33.264Z,68.48
2018-09-02T12:21:33.210Z,68.67
2018-09-02T12:22:33.136Z,68.48
2018-09-02T12:23:33.080Z,68.57
2018-09-02T12:24:33.031Z,68.57
2018-09-02T12:25:32.971Z,68.57
2018-09-02T12:26:32.910Z,68.67
2018-09-02T12:27:32.846Z,68.67
2018-09-02T12:28:32.778Z,68.29
2018-09-02T12:29:32.727Z,68.67
2018-09-02T12:30:32.667Z,68.87
2018-09-02T12:31:32.628Z,68.67
2018-09-02T12:32:32.550Z,68.09
2018-09-02T12:33:32.489Z,67.90
2018-09-02T12:34:32.432Z,67.80
2018-09-02T12:35:32.349Z,67.80
2018-09-02T12:36:32.305Z,67.60
2018-09-02T12:37:32.245Z,67.70
2018-09-02T12:38:32.196Z,67.90
2018-09-02T12:39:32.127Z,68.09
2018-09-02T12:40:32.059Z,68.19
2018-09-02T12:41:32.015Z,67.63
2018-09-02T12:42:31.949Z,67.73
2018-09-02T12:43:31.886Z,67.50
2018-09-02T12:44:31.829Z,67.44
2018-09-02T12:45:31.761Z,67.44
2018-09-02T12:46:31.697Z,67.31
2018-09-02T12:47:31.657Z,67.41
2018-09-02T12:48:31.579Z,67.31
2018-09-02T12:49:31.521Z,66.76
2018-09-02T12:50:31.464Z,66.86
2018-09-02T12:51:31.404Z,66.66